Weather reports worldwide

Advertisment
Bari, Italy (16271): temperature & dewpoint: 23.05.2020 00:00:00 - 29.05.2020 00:00:00 (CEST)Bari, Italy (16271): wind speed: 23.05.2020 00:00:00 - 29.05.2020 00:00:00 (CEST)Bari, Italy (16271): wind direction: 23.05.2020 00:00:00 - 29.05.2020 00:00:00 (CEST)Bari, Italy (16271): reduced air pressure: 23.05.2020 00:00:00 - 29.05.2020 00:00:00 (CEST)Bari, Italy (16271): precipitation: 23.05.2020 00:00:00 - 29.05.2020 00:00:00 (CEST)
Date & Time tt [°C] td [°C] ff [km/h] ff [kn] dd ppp [hPa] rr [mm]
29.05.2020 00:00:00 - - - - - - -
28.05.2020 23:00:00 19,4 10,9 22 12 W 1020,3 -
28.05.2020 22:00:00 19,5 11,0 22 12 W 1020,4 -
28.05.2020 21:00:00 19,4 12,4 26 14 NW 1020,2 -
28.05.2020 20:00:00 19,6 13,0 28 15 NW 1020,2 -
28.05.2020 19:00:00 19,8 12,5 28 15 NW 1020,1 -
28.05.2020 18:00:00 20,3 11,7 29 16 NW 1020,2 -
28.05.2020 17:00:00 20,5 12,9 24 13 NW 1020,8 -
28.05.2020 16:00:00 20,5 12,9 22 12 W 1021,2 -
28.05.2020 15:00:00 20,9 12,0 24 13 NW 1021,7 -
28.05.2020 14:00:00 20,3 13,2 22 12 NW 1022,4 -
28.05.2020 13:00:00 20,3 13,2 22 12 NW 1022,8 -
28.05.2020 12:00:00 20,1 13,2 24 13 W 1023,2 -
28.05.2020 11:00:00 19,7 12,7 18 10 W - -
28.05.2020 10:00:00 18,6 13,4 26 14 W 1023,8 -
28.05.2020 09:00:00 18,2 12,6 24 13 W - -
28.05.2020 08:00:00 17,5 12,6 16 9 W 1023,9 -
28.05.2020 07:00:00 16,4 11,9 18 10 W 1023,9 -
28.05.2020 06:00:00 15,9 11,4 15 8 W - -
28.05.2020 05:00:00 15,8 10,7 16 9 W 1023,9 -
28.05.2020 04:00:00 17,0 12,1 26 14 W 1023,8 -
28.05.2020 03:00:00 17,9 13,3 28 15 W - -
28.05.2020 02:00:00 18,1 13,3 31 17 W 1024,2 -
28.05.2020 01:00:00 18,4 13,4 29 16 W - -
28.05.2020 00:00:00 18,6 13,8 35 19 W 1025,1 -
27.05.2020 23:00:00 18,9 14,1 41 22 W 1024,7 -
27.05.2020 22:00:00 19,0 14,2 35 19 W 1024,8 -
27.05.2020 21:00:00 19,0 13,5 37 20 W 1024,4 -
27.05.2020 20:00:00 19,2 12,4 39 21 W - -
27.05.2020 19:00:00 19,6 10,5 41 22 W 1024,0 -
27.05.2020 18:00:00 19,3 12,0 39 21 W - -
27.05.2020 17:00:00 19,5 12,5 39 21 W - -
27.05.2020 16:00:00 19,8 12,3 34 18 W - -
27.05.2020 15:00:00 19,7 12,4 31 17 W - -
27.05.2020 14:00:00 19,6 11,8 34 18 W - -
27.05.2020 13:00:00 20,0 11,2 31 17 W - -
27.05.2020 12:00:00 19,9 10,3 37 20 W 1025,0 -
27.05.2020 11:00:00 19,7 11,2 41 22 W 1024,6 -
27.05.2020 10:00:00 19,4 10,3 42 23 W 1024,5 -
27.05.2020 09:00:00 19,0 10,0 48 26 W 1024,4 -
27.05.2020 08:00:00 19,1 10,3 34 18 W 1023,9 -
27.05.2020 07:00:00 18,5 10,3 34 18 W - -
27.05.2020 06:00:00 17,8 10,4 37 20 W - -
27.05.2020 05:00:00 17,9 12,3 28 15 W 1023,0 -
27.05.2020 04:00:00 18,2 12,6 29 16 W 1023,2 -
27.05.2020 03:00:00 18,3 10,8 28 15 W 1023,1 -
27.05.2020 02:00:00 18,5 10,5 21 11 W 1023,3 -
27.05.2020 01:00:00 18,3 11,6 28 15 W 1023,4 -
27.05.2020 00:00:00 18,6 13,4 37 20 W 1023,4 -
26.05.2020 23:00:00 18,5 13,5 39 21 W 1023,6 -
26.05.2020 22:00:00 18,5 13,1 42 23 W 1023,3 -
26.05.2020 21:00:00 18,5 12,2 48 26 W - -
26.05.2020 20:00:00 18,7 11,9 48 26 W 1022,9 -
26.05.2020 19:00:00 19,3 11,0 44 24 W 1022,8 -
26.05.2020 18:00:00 19,5 11,7 50 27 W 1022,6 -
26.05.2020 17:00:00 19,6 10,8 42 23 W - -
26.05.2020 16:00:00 19,1 10,6 41 22 W - -
26.05.2020 15:00:00 19,4 11,4 41 22 W 1023,4 -
26.05.2020 14:00:00 19,3 10,5 41 22 W 1023,5 -
26.05.2020 13:00:00 18,9 10,4 37 20 W 1023,7 -
26.05.2020 12:00:00 19,1 10,8 35 19 W 1023,5 -
26.05.2020 11:00:00 19,7 10,6 31 17 W 1023,7 -
26.05.2020 10:00:00 19,6 12,6 26 14 W - -
26.05.2020 09:00:00 19,1 11,8 31 17 W - -
26.05.2020 08:00:00 18,3 11,6 37 20 W - -
26.05.2020 07:00:00 18,2 10,3 24 13 W - -
26.05.2020 06:00:00 18,3 11,1 37 20 W 1022,5 -
26.05.2020 05:00:00 17,3 8,4 16 9 W 1022,7 -
26.05.2020 04:00:00 18,9 12,6 29 16 W 1022,5 -
26.05.2020 03:00:00 18,3 10,6 15 8 W - -
26.05.2020 02:00:00 19,1 13,2 28 15 W - -
26.05.2020 01:00:00 19,6 13,0 24 13 W 1023,3 -
26.05.2020 00:00:00 19,6 12,1 26 14 W 1023,1 -
25.05.2020 23:00:00 19,7 12,7 28 15 W 1023,0 -
25.05.2020 22:00:00 19,8 12,5 29 16 W - -
25.05.2020 21:00:00 20,0 12,7 26 14 W 1022,8 -
25.05.2020 20:00:00 20,4 11,8 28 15 W - -
25.05.2020 19:00:00 21,0 12,1 26 14 W 1022,6 -
25.05.2020 18:00:00 21,1 11,9 26 14 W - -
25.05.2020 17:00:00 20,8 11,4 24 13 W - -
25.05.2020 16:00:00 21,3 12,4 26 14 W 1023,8 -
25.05.2020 15:00:00 21,6 11,0 16 9 W - -
25.05.2020 14:00:00 21,3 9,5 15 8 W 1024,8 -
25.05.2020 13:00:00 20,8 12,4 21 11 W - -
25.05.2020 12:00:00 20,5 12,4 28 15 W 1025,2 -
25.05.2020 11:00:00 20,2 10,5 28 15 W 1025,3 -
25.05.2020 10:00:00 20,2 10,5 26 14 W 1025,2 -
25.05.2020 09:00:00 19,8 11,2 28 15 W 1025,0 -
25.05.2020 08:00:00 19,2 12,7 24 13 W - -
25.05.2020 07:00:00 18,8 15,0 26 14 W 1024,5 -
25.05.2020 06:00:00 19,1 15,1 29 16 W - -
25.05.2020 05:00:00 19,1 15,1 29 16 W - -
25.05.2020 04:00:00 19,2 15,2 26 14 W 1024,4 -
25.05.2020 03:00:00 19,4 16,2 22 12 W 1024,4 -
25.05.2020 02:00:00 19,5 15,5 31 17 W 1024,3 -
25.05.2020 01:00:00 19,7 15,7 16 9 W - -
25.05.2020 00:00:00 19,9 16,5 15 8 W 1025,0 -
24.05.2020 23:00:00 19,8 15,8 15 8 W 1024,8 -
24.05.2020 22:00:00 19,6 15,6 13 7 W - -
24.05.2020 21:00:00 19,9 15,9 11 6 W - -
24.05.2020 20:00:00 20,4 16,2 16 9 W - -
24.05.2020 19:00:00 21,4 15,6 8 4 W - -
24.05.2020 18:00:00 21,3 17,8 15 8 W 1022,9 -
24.05.2020 17:00:00 21,6 16,9 21 11 W - -
24.05.2020 16:00:00 22,0 16,2 21 11 W - -
24.05.2020 15:00:00 23,0 16,9 15 8 W - -
24.05.2020 14:00:00 24,2 16,1 16 9 W - -
24.05.2020 13:00:00 24,5 15,3 22 12 W - -
24.05.2020 12:00:00 24,5 14,8 13 7 W - -
24.05.2020 11:00:00 25,1 13,6 8 4 W - -
24.05.2020 10:00:00 23,9 14,2 9 5 W 1021,9 -
24.05.2020 09:00:00 24,2 14,2 8 4 W 1022,1 -
24.05.2020 08:00:00 23,1 9,4 4 2 S 1021,6 -
24.05.2020 07:00:00 21,3 12,1 8 4 S 1021,5 -
24.05.2020 06:00:00 20,8 12,2 9 5 S 1021,2 -
24.05.2020 05:00:00 21,5 12,3 4 2 S 1021,3 -
24.05.2020 04:00:00 20,9 12,5 9 5 S 1021,7 -
24.05.2020 03:00:00 21,5 12,6 4 2 S 1022,0 -
24.05.2020 02:00:00 21,8 12,0 11 6 S 1022,3 0,0
24.05.2020 01:00:00 22,2 9,3 9 5 S 1022,8 -
24.05.2020 00:00:00 22,5 4,0 13 7 S 1022,8 -
23.05.2020 23:00:00 23,3 3,2 22 12 S 1022,6 -
23.05.2020 22:00:00 24,2 4,0 15 8 S 1022,6 -
23.05.2020 21:00:00 25,5 5,1 11 6 S 1022,5 -
23.05.2020 20:00:00 25,7 5,3 5 3 W 1022,6 0,0
23.05.2020 19:00:00 24,1 4,4 13 7 W 1022,6 -
23.05.2020 18:00:00 22,7 14,7 11 6 W 1022,9 -
23.05.2020 17:00:00 22,8 14,3 16 9 W 1023,4 -
23.05.2020 16:00:00 22,8 15,3 13 7 W 1024,0 -
23.05.2020 15:00:00 22,6 13,8 15 8 W 1024,6 -
23.05.2020 14:00:00 22,4 13,1 13 7 W 1025,2 0,0
23.05.2020 13:00:00 23,2 15,2 11 6 W 1025,3 -
23.05.2020 12:00:00 22,5 14,8 8 4 W 1025,3 -
23.05.2020 11:00:00 22,9 14,1 5 3 W 1025,3 -
23.05.2020 10:00:00 21,9 11,3 5 3 W 1025,0 -
23.05.2020 09:00:00 22,2 11,5 5 3 W 1025,1 -
23.05.2020 08:00:00 19,8 6,8 8 4 W 1025,0 0,0
23.05.2020 07:00:00 17,6 6,7 13 7 W 1024,9 -
23.05.2020 06:00:00 16,8 7,1 15 8 W 1024,7 -
23.05.2020 05:00:00 16,9 6,9 15 8 W 1024,5 -
23.05.2020 04:00:00 17,5 6,6 15 8 W 1024,7 -
23.05.2020 03:00:00 17,1 7,6 9 5 W 1024,7 -
23.05.2020 02:00:00 17,8 7,5 11 6 W 1024,7 0,0
23.05.2020 01:00:00 18,1 7,4 13 7 W 1024,9 -
23.05.2020 00:00:00 18,4 9,1 13 7 W 1025,0 -

tt = temperature
td = dewpoint
ff = wind speed
dd = wind direction
ppp = reduced air pressure
rr = precipitation

Next stations